Time;durP1;ratioP1;P1;durP2;ratioP2;P2;SDS_P1;SDS_P2;PMS_P1;PMS_P2;Temp;Humidity;BMP_temperature;BMP_pressure;BME280_temperature;BME280_humidity;BME280_pressure;Samples;Min_cycle;Max_cycle;Signal;HPM_P1;HPM_P2
2022/07/10 00:02:16;;;;;;;7.00;6.40;;;15.40;94.80;;;14.30;86.48;98482.78;4999734;28;20466;-77
2022/07/10 00:04:43;;;;;;;7.37;6.67;;;15.30;95.60;;;14.26;86.86;98474.28;4999961;28;20501;-78
2022/07/10 00:07:11;;;;;;;7.53;6.93;;;15.20;95.80;;;14.06;87.55;98457.38;4992892;28;20843;-77
2022/07/10 00:09:40;;;;;;;7.20;6.70;;;15.20;96.10;;;13.76;87.96;98420.13;4994176;28;20463;-79
2022/07/10 00:12:07;;;;;;;7.60;6.90;;;15.10;96.50;;;14.01;88.59;98477.06;5006802;28;20454;-78
2022/07/10 00:14:35;;;;;;;7.50;6.93;;;15.00;96.90;;;13.80;88.62;98451.19;5008621;28;20460;-78
2022/07/10 00:17:02;;;;;;;7.30;6.70;;;15.00;96.90;;;13.96;89.09;98485.06;5002676;28;20908;-78
2022/07/10 00:19:29;;;;;;;7.13;6.63;;;14.90;97.70;;;13.91;88.95;98469.44;4991478;28;20468;-78
2022/07/10 00:21:57;;;;;;;6.93;6.33;;;14.90;97.50;;;13.89;89.32;98471.56;5006366;28;20468;-77
2022/07/10 00:24:24;;;;;;;7.10;6.50;;;14.90;97.90;;;13.99;88.68;98473.75;4998175;28;20875;-78
2022/07/10 00:26:53;;;;;;;7.73;7.10;;;15.00;97.60;;;13.85;89.07;98465.75;5020292;28;20544;-81
2022/07/10 00:29:20;;;;;;;8.57;7.87;;;14.80;97.60;;;13.52;89.89;98437.06;5013101;28;20464;-81
2022/07/10 00:31:48;;;;;;;8.30;7.43;;;14.80;98.30;;;13.63;90.80;98464.53;4996370;28;20464;-81
2022/07/10 00:34:16;;;;;;;7.80;7.20;;;14.70;99.30;;;13.64;90.53;98466.19;5012990;28;20976;-79
2022/07/10 00:36:43;;;;;;;8.10;7.50;;;14.70;99.30;;;13.63;91.18;98469.97;5009894;28;21017;-79
2022/07/10 00:39:12;;;;;;;8.13;7.53;;;14.60;99.90;;;13.48;91.86;98463.00;4999419;28;20466;-83
2022/07/10 00:41:40;;;;;;;9.50;8.70;;;14.60;99.90;;;13.07;92.48;98407.41;5004016;28;20459;-77
2022/07/10 00:44:09;;;;;;;8.87;8.20;;;14.50;99.90;;;13.46;92.18;98452.38;5001362;28;20469;-78
2022/07/10 00:46:36;;;;;;;9.03;8.33;;;14.50;99.90;;;13.54;92.26;98453.16;4997428;28;20453;-78
2022/07/10 00:49:03;;;;;;;9.13;8.53;;;14.50;99.90;;;13.35;91.88;98425.09;5010557;28;20457;-76
2022/07/10 00:51:33;;;;;;;9.97;9.17;;;14.50;99.90;;;13.45;92.40;98458.84;5014362;28;20458;-79
2022/07/10 00:54:01;;;;;;;10.33;9.43;;;14.50;99.90;;;13.37;92.97;98460.97;4998556;28;20466;-78
2022/07/10 00:56:29;;;;;;;10.37;9.47;;;14.40;99.90;;;13.39;92.61;98459.72;5003340;28;20481;-80
2022/07/10 00:58:57;;;;;;;9.27;8.57;;;14.40;99.90;;;13.36;93.32;98464.75;4994791;28;20460;-80
2022/07/10 01:01:25;;;;;;;9.93;9.23;;;14.40;99.90;;;13.32;93.27;98465.22;5021242;28;20961;-78
2022/07/10 01:03:53;;;;;;;11.97;9.67;;;14.40;99.90;;;13.27;93.49;98454.19;5005549;28;20481;-79
2022/07/10 01:06:20;;;;;;;10.67;9.87;;;14.40;99.90;;;12.78;93.44;98388.03;5014604;28;20526;-79
2022/07/10 01:08:48;;;;;;;11.60;10.70;;;14.30;99.90;;;13.22;93.93;98470.28;4992554;28;20453;-78
2022/07/10 01:11:16;;;;;;;10.60;9.50;;;14.30;99.90;;;13.21;94.03;98463.22;5005545;28;20459;-80
2022/07/10 01:13:44;;;;;;;11.80;10.90;;;14.20;99.90;;;13.13;94.37;98467.03;4992079;28;20477;-80
2022/07/10 01:16:12;;;;;;;11.17;10.03;;;14.20;99.90;;;13.23;94.32;98471.94;5011838;28;20555;-81
2022/07/10 01:18:41;;;;;;;11.07;10.07;;;14.20;99.90;;;13.07;94.24;98446.22;5021817;28;20465;-77
2022/07/10 01:21:25;;;;;;;10.50;9.70;;;14.20;99.90;;;12.79;94.35;98422.22;4999884;28;20461;-78
2022/07/10 01:23:53;;;;;;;10.67;9.87;;;14.20;99.90;;;13.10;94.93;98463.91;4999612;28;20944;-77
2022/07/10 01:26:21;;;;;;;10.60;9.80;;;14.10;99.90;;;13.18;94.50;98474.50;5000263;28;20466;-79
2022/07/10 01:28:50;;;;;;;11.20;10.30;;;14.20;99.90;;;13.02;94.80;98460.44;4997288;28;20461;-79
2022/07/10 01:31:19;;;;;;;10.60;9.80;;;14.10;99.90;;;13.09;95.09;98470.41;5009998;28;20455;-78
2022/07/10 01:33:47;;;;;;;11.07;10.27;;;14.10;99.90;;;12.99;95.46;98463.59;4999835;28;20563;-78
2022/07/10 01:36:16;;;;;;;10.73;9.83;;;14.10;99.90;;;12.95;95.70;98465.06;4995432;28;20479;-77
2022/07/10 01:38:44;;;;;;;9.83;9.13;;;14.00;99.90;;;13.00;95.66;98462.56;4998935;28;20846;-79
2022/07/10 01:41:11;;;;;;;11.90;10.97;;;14.00;99.90;;;12.81;96.05;98447.22;5004008;28;20572;-78
2022/07/10 01:43:42;;;;;;;11.80;10.90;;;14.00;99.90;;;12.92;96.23;98459.28;4999769;28;20887;-80
2022/07/10 01:46:10;;;;;;;10.70;9.87;;;14.00;99.90;;;12.91;96.27;98455.72;5004068;28;20449;-79
2022/07/10 01:48:39;;;;;;;11.00;10.20;;;14.00;99.90;;;12.86;96.09;98452.84;4993898;28;20912;-80
2022/07/10 01:51:07;;;;;;;10.73;9.83;;;14.00;99.90;;;12.76;96.66;98453.34;4984736;28;20468;-79
2022/07/10 01:53:36;;;;;;;10.17;9.23;;;13.90;99.90;;;12.85;97.20;98471.00;5001939;28;20469;-82
2022/07/10 01:56:06;;;;;;;10.70;9.70;;;13.90;99.90;;;12.86;96.59;98463.69;5005316;28;20540;-81
2022/07/10 01:58:34;;;;;;;10.80;10.00;;;13.90;99.90;;;12.77;97.64;98470.41;5008586;28;20471;-78
2022/07/10 02:01:01;;;;;;;10.30;9.53;;;13.80;99.90;;;12.74;96.81;98464.38;5016087;28;20549;-79
2022/07/10 02:06:15;;;;;;;11.20;10.30;;;13.80;99.90;;;12.77;96.87;98470.41;5024991;28;20456;-78
2022/07/10 02:08:44;;;;;;;10.50;9.63;;;13.80;99.90;;;12.73;97.26;98470.88;5012580;28;20456;-82
2022/07/10 02:11:12;;;;;;;10.10;9.17;;;13.80;99.90;;;12.63;97.21;98450.72;5019898;28;20560;-79
2022/07/10 02:13:39;;;;;;;9.50;8.80;;;13.80;99.90;;;12.88;96.97;98464.31;5002341;28;20457;-76
2022/07/10 02:16:07;;;;;;;10.43;9.63;;;13.90;99.90;;;12.82;96.99;98476.84;4992803;28;20468;-78
2022/07/10 02:18:35;;;;;;;9.80;9.00;;;13.90;99.90;;;12.85;96.28;98465.56;5000980;28;20457;-78
2022/07/10 02:21:03;;;;;;;10.20;9.50;;;14.00;99.90;;;12.93;95.87;98467.19;5002065;28;20689;-79
2022/07/10 02:23:30;;;;;;;9.33;8.63;;;14.00;99.90;;;13.07;95.40;98469.78;5001461;28;20484;-79
2022/07/10 02:25:59;;;;;;;8.50;7.90;;;14.10;99.90;;;12.95;95.70;98475.91;4991516;28;20456;-78
2022/07/10 02:28:29;;;;;;;9.30;8.47;;;14.00;99.90;;;12.78;95.78;98448.53;4999513;28;20468;-80
2022/07/10 02:30:57;;;;;;;9.80;9.07;;;14.00;99.90;;;12.94;95.75;98479.69;4999752;28;20456;-78
2022/07/10 02:33:24;;;;;;;8.63;7.97;;;14.00;99.90;;;13.01;94.77;98464.22;5004130;28;20465;-78
2022/07/10 02:35:51;;;;;;;7.87;7.27;;;14.00;99.90;;;12.97;94.48;98471.13;5007652;28;21261;-79
2022/07/10 02:38:19;;;;;;;8.10;7.37;;;14.00;99.90;;;12.69;94.45;98422.72;5002324;28;20459;-78
2022/07/10 02:40:46;;;;;;;8.87;7.87;;;14.00;99.90;;;12.94;93.25;98458.00;5002700;28;20700;-78
2022/07/10 02:43:15;;;;;;;6.63;6.13;;;14.00;99.90;;;12.94;92.70;98485.09;5015403;28;20496;-78
2022/07/10 02:45:42;;;;;;;6.93;6.33;;;14.00;99.90;;;13.02;91.06;98482.16;4990513;28;20555;-78
2022/07/10 02:48:10;;;;;;;6.17;5.53;;;14.10;98.40;;;13.23;89.68;98471.94;4995265;28;21118;-78
2022/07/10 02:50:37;;;;;;;5.27;4.77;;;14.10;97.50;;;13.35;87.18;98477.50;5001876;28;20524;-79
2022/07/10 02:53:04;;;;;;;5.13;4.53;;;14.30;94.60;;;13.28;86.47;98484.84;4996729;28;20452;-77
2022/07/10 02:55:32;;;;;;;6.87;5.63;;;14.30;94.00;;;13.39;85.39;98483.31;4999889;28;20457;-78
2022/07/10 02:58:00;;;;;;;4.20;3.70;;;14.40;93.20;;;13.30;84.98;98483.59;5000744;28;20488;-78
2022/07/10 03:00:29;;;;;;;4.33;3.80;;;14.40;92.50;;;13.27;84.90;98485.91;5003122;28;20454;-79
2022/07/10 03:02:57;;;;;;;4.57;3.90;;;14.30;92.50;;;13.29;84.86;98484.66;5001961;28;21294;-78
2022/07/10 03:05:25;;;;;;;4.90;4.50;;;14.30;92.50;;;13.33;84.43;98490.44;4999718;28;20475;-80
2022/07/10 03:07:52;;;;;;;3.90;3.50;;;14.30;92.40;;;13.24;84.17;98489.88;5001536;28;20471;-78
2022/07/10 03:10:23;;;;;;;4.00;3.17;;;14.30;91.90;;;13.31;82.08;98485.25;5002141;28;20526;-77
2022/07/10 03:12:50;;;;;;;3.50;3.20;;;14.30;90.90;;;13.18;81.99;98469.09;5003616;28;20468;-82
2022/07/10 03:15:17;;;;;;;3.30;3.00;;;14.30;90.60;;;13.21;81.70;98489.53;5016904;28;20511;-81
2022/07/10 03:17:46;;;;;;;3.60;3.30;;;14.30;90.30;;;13.09;81.70;98492.09;4999709;28;20482;-80
2022/07/10 03:20:14;;;;;;;3.73;3.33;;;14.20;90.20;;;12.98;81.25;98497.19;4997009;28;20476;-79
2022/07/10 03:22:41;;;;;;;5.40;3.27;;;14.10;89.70;;;12.87;81.74;98484.34;5001490;28;20633;-79
2022/07/10 03:25:10;;;;;;;3.83;3.00;;;14.10;90.20;;;12.82;81.33;98476.03;5001861;28;20902;-79
2022/07/10 03:27:37;;;;;;;4.33;3.20;;;14.00;90.20;;;12.69;80.43;98460.66;4998505;28;20448;-81
2022/07/10 03:30:06;;;;;;;4.90;2.93;;;14.00;88.60;;;12.93;79.59;98490.78;5004847;28;20455;-80
2022/07/10 03:32:34;;;;;;;3.77;2.93;;;14.00;87.90;;;12.98;79.73;98502.63;5016235;28;20473;-84
2022/07/10 03:35:03;;;;;;;2.93;2.73;;;14.00;88.00;;;12.98;79.94;98497.19;5000429;28;20469;-80
2022/07/10 03:37:30;;;;;;;3.33;3.00;;;14.00;88.30;;;12.86;80.38;98504.38;5000726;28;20487;-82
2022/07/10 03:39:57;;;;;;;2.70;2.50;;;14.00;88.40;;;13.03;79.32;98508.22;4996461;28;20552;-79
2022/07/10 03:42:25;;;;;;;5.23;3.50;;;14.00;87.80;;;13.03;78.99;98505.50;5021557;28;20460;-82
2022/07/10 03:44:54;;;;;;;2.87;2.43;;;14.00;87.20;;;12.95;79.99;98508.47;5003765;28;20494;-80
2022/07/10 03:47:21;;;;;;;3.10;2.90;;;14.00;88.30;;;13.15;79.55;98507.50;5002391;28;20959;-81
2022/07/10 03:49:49;;;;;;;5.37;3.23;;;14.10;87.90;;;13.01;79.52;98488.63;5000320;28;20451;-79
2022/07/10 03:52:18;;;;;;;3.83;3.40;;;14.20;87.70;;;13.08;79.93;98504.00;5004108;28;20458;-77
2022/07/10 03:54:45;;;;;;;3.67;3.23;;;14.10;88.20;;;13.16;79.82;98501.03;5005225;28;20562;-78
2022/07/10 03:59:57;;;;;;;4.27;3.37;;;14.10;88.90;;;12.96;80.97;98485.72;5014101;28;20593;-78
2022/07/10 04:02:25;;;;;;;5.93;3.57;;;14.20;89.70;;;12.96;81.35;98499.28;5005102;28;20469;-77
2022/07/10 04:04:52;;;;;;;3.43;3.23;;;14.10;89.90;;;12.81;81.04;98458.09;5001341;28;20472;-78
2022/07/10 04:07:21;;;;;;;4.00;3.37;;;14.10;90.00;;;13.08;81.53;98498.56;5006435;28;20474;-77
2022/07/10 04:09:48;;;;;;;4.60;4.20;;;14.10;90.30;;;13.04;82.10;98496.31;5003869;28;20463;-77
2022/07/10 04:12:16;;;;;;;7.23;4.03;;;14.20;90.70;;;13.07;82.37;98500.47;5008464;28;20461;-80
2022/07/10 04:14:43;;;;;;;3.73;3.43;;;14.10;90.90;;;12.84;83.01;98492.91;5003578;28;20472;-78
2022/07/10 04:17:10;;;;;;;6.23;3.83;;;14.00;91.00;;;12.86;82.76;98505.19;5006679;28;20483;-79
2022/07/10 04:19:37;;;;;;;3.80;3.40;;;14.00;91.00;;;12.72;82.54;98488.19;5015957;28;20467;-77
2022/07/10 04:22:05;;;;;;;4.13;3.73;;;13.90;90.90;;;12.70;82.72;98505.69;5025051;28;20477;-81
2022/07/10 04:24:34;;;;;;;4.80;3.07;;;13.80;90.90;;;12.67;82.35;98501.56;5017665;28;20470;-82
2022/07/10 04:27:01;;;;;;;6.00;3.27;;;13.80;90.70;;;12.94;80.70;98501.38;5029336;28;20464;-79
2022/07/10 04:29:29;;;;;;;4.70;2.83;;;14.00;90.10;;;13.90;76.26;98496.84;5005595;28;20479;-79
2022/07/10 04:31:56;;;;;;;3.77;2.83;;;14.70;85.40;;;14.56;72.87;98499.81;5020993;28;20887;-79
2022/07/10 04:34:24;;;;;;;3.80;2.90;;;15.30;82.10;;;15.27;69.17;98494.63;5003666;28;20482;-79
2022/07/10 04:36:52;;;;;;;3.17;2.20;;;16.10;79.60;;;15.54;66.86;98496.91;5007122;28;20480;-78
2022/07/10 04:39:19;;;;;;;3.00;2.20;;;16.50;77.30;;;16.10;64.32;98501.97;5016962;28;20457;-77
2022/07/10 04:41:48;;;;;;;2.50;1.97;;;17.00;75.60;;;16.07;62.55;98496.16;5021885;28;20948;-77
2022/07/10 04:44:16;;;;;;;2.17;1.80;;;17.10;73.00;;;16.23;62.11;98497.31;5003043;28;20461;-77
2022/07/10 04:46:43;;;;;;;3.53;1.73;;;17.30;73.10;;;16.63;60.07;98488.31;5002337;28;20456;-78
2022/07/10 04:49:10;;;;;;;4.73;1.93;;;17.90;71.10;;;16.21;60.81;98518.56;5003234;28;20471;-77
2022/07/10 04:51:38;;;;;;;4.43;1.70;;;17.60;69.90;;;16.34;60.80;98512.84;5023852;28;20443;-81
2022/07/10 04:54:05;;;;;;;3.23;1.80;;;17.50;70.10;;;16.39;59.12;98510.19;5001469;28;20459;-80
2022/07/10 04:56:32;;;;;;;3.00;1.70;;;17.60;68.40;;;16.48;58.78;98497.00;5005473;28;20489;-80
2022/07/10 04:59:01;;;;;;;1.73;1.40;;;17.70;68.00;;;16.47;58.25;98505.44;5001287;28;21135;-80
2022/07/10 05:01:29;;;;;;;2.53;1.60;;;17.60;67.80;;;16.24;58.79;98501.72;5002982;28;20529;-79
2022/07/10 05:03:56;;;;;;;4.03;1.80;;;17.40;67.40;;;16.33;58.53;98513.91;4997763;28;20462;-79
2022/07/10 05:06:25;;;;;;;2.93;1.30;;;17.60;67.00;;;16.73;57.17;98530.47;5007122;28;20503;-81
2022/07/10 05:08:53;;;;;;;2.43;1.17;;;17.90;65.80;;;16.53;56.91;98529.03;5000739;28;20461;-80
2022/07/10 05:11:20;;;;;;;2.07;1.63;;;17.80;65.20;;;16.84;56.70;98494.13;5014438;28;20970;-80
2022/07/10 05:13:48;;;;;;;7.10;2.13;;;17.80;66.10;;;17.53;55.32;98530.56;4999537;28;20466;-79
2022/07/10 05:16:17;;;;;;;5.00;1.60;;;18.50;65.10;;;17.03;56.36;98534.88;5005184;28;20456;-79
2022/07/10 05:18:45;;;;;;;3.10;1.60;;;18.00;65.00;;;16.70;57.16;98531.81;5003231;28;20581;-80
2022/07/10 05:21:13;;;;;;;3.00;1.20;;;18.10;65.00;;;17.06;56.54;98531.66;5003282;28;21013;-78
2022/07/10 05:23:41;;;;;;;2.90;1.40;;;18.10;65.30;;;16.69;57.41;98538.34;5004952;28;20453;-79
2022/07/10 05:26:08;;;;;;;4.83;1.53;;;17.70;65.80;;;17.45;55.27;98517.34;5012857;28;20502;-78
2022/07/10 05:28:36;;;;;;;4.50;2.07;;;18.30;65.10;;;17.60;54.60;98527.66;5000215;28;20455;-80
2022/07/10 05:31:03;;;;;;;1.90;1.50;;;18.60;64.10;;;17.34;55.07;98532.69;5001596;28;20461;-80
2022/07/10 05:33:32;;;;;;;2.10;1.17;;;18.30;63.80;;;17.12;55.56;98527.97;5003659;28;20491;-79
2022/07/10 05:36:00;;;;;;;2.50;1.30;;;18.40;63.90;;;16.83;56.54;98506.97;5002187;28;20463;-80
2022/07/10 05:38:27;;;;;;;3.80;1.53;;;18.10;64.50;;;15.60;59.52;98492.38;5002011;28;20500;-79
2022/07/10 05:40:54;;;;;;;1.80;1.40;;;17.20;65.30;;;15.53;60.61;98536.06;5018946;28;21025;-78
2022/07/10 05:43:22;;;;;;;3.10;1.60;;;16.60;66.70;;;15.22;60.96;98540.75;5006446;28;20455;-80
2022/07/10 05:45:49;;;;;;;2.87;1.27;;;16.50;66.50;;;14.89;61.93;98542.06;5003073;28;20472;-80
2022/07/10 05:48:17;;;;;;;2.47;1.70;;;16.00;67.30;;;14.97;61.63;98552.66;5003713;28;20467;-79
2022/07/10 05:50:45;;;;;;;4.73;1.30;;;16.00;67.30;;;14.27;62.53;98543.03;5013105;28;20549;-80
2022/07/10 05:53:13;;;;;;;4.47;1.73;;;15.60;67.10;;;14.14;63.47;98547.56;5001106;28;20985;-78
2022/07/10 05:55:42;;;;;;;4.03;1.40;;;15.20;68.00;;;13.51;63.58;98510.59;5022382;28;20560;-79
2022/07/10 05:58:10;;;;;;;2.20;1.37;;;14.90;67.70;;;14.50;61.23;98547.78;5003402;28;20569;-78
2022/07/10 06:00:38;;;;;;;1.60;1.10;;;15.20;67.70;;;15.86;56.66;98533.84;4988631;28;20462;-81
2022/07/10 06:03:05;;;;;;;1.43;1.33;;;16.50;65.20;;;17.06;53.52;98542.59;5011556;28;20450;-80
2022/07/10 06:05:33;;;;;;;1.73;1.17;;;17.90;63.10;;;17.71;51.03;98540.41;5009676;28;20894;-83
2022/07/10 06:08:01;;;;;;;5.20;2.07;;;18.70;60.30;;;17.95;49.56;98548.41;5013754;28;20476;-82
2022/07/10 06:10:29;;;;;;;2.30;1.13;;;19.30;58.40;;;16.82;51.75;98553.59;5014660;28;20582;-80
2022/07/10 06:12:56;;;;;;;4.13;1.10;;;18.60;57.90;;;16.69;52.60;98557.44;5003516;28;20850;-81
2022/07/10 06:15:23;;;;;;;1.80;1.20;;;18.40;58.20;;;17.64;49.86;98556.13;5001392;28;20455;-84
2022/07/10 06:17:51;;;;;;;2.40;1.23;;;19.00;57.50;;;17.35;50.29;98539.81;4994072;28;20989;-81
2022/07/10 06:20:18;;;;;;;2.27;1.03;;;19.10;57.00;;;17.26;50.55;98544.84;5004656;28;20461;-81
2022/07/10 06:22:45;;;;;;;2.23;1.00;;;19.00;56.50;;;17.25;50.24;98543.19;5007861;28;20458;-82
2022/07/10 06:25:14;;;;;;;5.13;1.20;;;19.00;56.60;;;17.20;49.91;98560.31;4991495;28;20956;-83
2022/07/10 06:27:41;;;;;;;2.20;0.90;;;18.70;56.20;;;16.92;50.53;98553.78;4990320;28;20459;-83
2022/07/10 06:30:10;;;;;;;3.40;1.00;;;18.50;56.10;;;15.53;53.87;98557.03;5014978;28;20541;-81
2022/07/10 06:32:38;;;;;;;1.13;1.03;;;17.20;57.10;;;14.72;56.39;98553.59;5000747;28;20615;-81
2022/07/10 06:35:07;;;;;;;1.87;1.10;;;16.20;58.70;;;14.53;57.42;98541.06;5008587;28;20547;-80
2022/07/10 06:37:34;;;;;;;2.30;1.47;;;15.80;60.10;;;14.17;58.89;98544.38;5018381;28;20470;-80
2022/07/10 06:40:02;;;;;;;5.10;1.70;;;15.40;60.90;;;14.22;59.28;98551.06;5013630;28;20466;-78
2022/07/10 06:42:30;;;;;;;2.50;1.27;;;15.30;62.00;;;14.28;58.91;98544.69;5006233;28;20464;-79
2022/07/10 06:44:58;;;;;;;6.70;1.47;;;15.40;62.20;;;14.22;59.74;98549.16;5001549;28;20470;-78
2022/07/10 06:50:10;;;;;;;4.13;1.13;;;15.30;62.70;;;14.10;60.28;98556.38;5001559;28;20489;-78
2022/07/10 06:52:38;;;;;;;2.73;1.37;;;15.20;63.10;;;14.22;60.33;98551.06;5001611;28;20526;-79
2022/07/10 06:55:07;;;;;;;11.70;1.50;;;15.30;63.60;;;14.61;59.19;98551.63;4999288;28;20456;-79
2022/07/10 06:57:36;;;;;;;5.43;1.10;;;15.60;63.80;;;15.41;56.89;98549.66;5011341;28;20493;-78
2022/07/10 07:00:04;;;;;;;2.27;1.27;;;16.20;63.20;;;15.67;56.00;98547.56;5013564;28;20449;-78
2022/07/10 07:02:31;;;;;;;5.27;1.37;;;16.60;62.10;;;15.27;57.32;98550.94;5017183;28;20566;-77
2022/07/10 07:04:59;;;;;;;2.30;1.10;;;16.30;62.10;;;15.00;58.38;98563.06;4997287;28;20556;-78
2022/07/10 07:07:26;;;;;;;3.00;1.33;;;16.20;62.50;;;14.48;59.75;98570.81;4999883;28;20463;-78
2022/07/10 07:09:54;;;;;;;5.67;1.47;;;15.70;63.50;;;14.51;60.66;98581.25;5010965;28;21022;-79
2022/07/10 07:12:21;;;;;;;7.13;1.40;;;15.60;64.00;;;14.24;60.71;98554.38;5023889;28;20460;-80
2022/07/10 07:14:50;;;;;;;1.67;1.13;;;15.40;63.90;;;14.20;60.05;98567.56;5021416;28;20514;-77
2022/07/10 07:17:22;;;;;;;2.27;1.00;;;15.40;63.60;;;14.26;58.33;98571.28;4993106;28;20525;-82
2022/07/10 07:25:21;;;;;;;1.53;0.90;;;15.50;60.70;;;14.68;54.96;98565.97;5011238;28;21061;-80
2022/07/10 07:27:48;;;;;;;3.90;1.30;;;15.80;59.70;;;14.93;54.51;98575.09;5008428;28;20466;-81
2022/07/10 07:30:17;;;;;;;2.87;1.27;;;15.90;59.40;;;15.34;53.96;98578.91;5012721;28;20453;-80
2022/07/10 07:32:49;;;;;;;2.20;0.70;;;16.20;59.50;;;15.73;50.91;98565.69;5007267;28;20580;-79
2022/07/10 07:35:17;;;;;;;2.53;1.10;;;16.70;57.40;;;16.24;49.84;98569.88;4997326;28;20806;-79
2022/07/10 07:37:47;;;;;;;1.73;1.07;;;17.20;56.80;;;16.38;49.62;98574.00;4997149;28;20471;-78
2022/07/10 07:40:17;;;;;;;0.70;0.50;;;17.40;56.20;;;16.13;49.55;98577.81;5027576;28;20447;-78
2022/07/10 07:42:44;;;;;;;2.20;1.10;;;17.30;55.70;;;15.74;49.38;98582.88;5010578;28;20516;-79
2022/07/10 07:45:12;;;;;;;3.30;1.20;;;16.90;55.50;;;15.67;50.33;98584.88;5022466;28;20454;-79
2022/07/10 07:47:48;;;;;;;1.13;0.67;;;16.70;55.60;;;15.66;48.69;98566.88;5014610;28;20499;-78
2022/07/10 07:50:18;;;;;;;1.10;0.67;;;16.70;54.20;;;15.29;48.95;98527.03;5004634;28;20465;-80
2022/07/10 07:52:46;;;;;;;1.50;0.87;;;16.60;54.40;;;15.52;49.24;98577.97;5009190;28;20462;-79
2022/07/10 07:55:16;;;;;;;1.40;0.80;;;16.50;54.60;;;15.88;48.50;98579.94;4992144;28;20475;-80
2022/07/10 07:57:43;;;;;;;4.87;0.90;;;16.80;54.40;;;16.53;46.83;98575.38;4998045;28;20980;-79
2022/07/10 08:00:14;;;;;;;1.10;0.67;;;17.30;54.00;;;16.73;46.31;98576.88;5006506;28;20466;-78
2022/07/10 08:02:42;;;;;;;2.00;0.67;;;17.50;53.40;;;17.04;45.45;98574.75;5025026;28;20497;-78
2022/07/10 08:05:11;;;;;;;1.63;0.90;;;17.90;52.80;;;16.45;46.22;98578.47;5006304;28;20457;-81
2022/07/10 08:07:41;;;;;;;3.90;1.00;;;17.60;52.20;;;15.98;47.42;98578.28;5009423;28;20469;-79
2022/07/10 08:10:12;;;;;;;0.90;0.60;;;17.20;52.70;;;15.73;48.10;98578.50;5004097;28;20457;-79
2022/07/10 08:12:40;;;;;;;1.50;0.80;;;16.90;52.90;;;15.39;47.89;98589.06;5010037;28;20463;-80
2022/07/10 08:15:11;;;;;;;3.47;0.73;;;16.60;52.60;;;15.26;47.28;98581.94;5007902;28;20493;-79
2022/07/10 08:17:39;;;;;;;3.17;0.60;;;16.40;52.20;;;15.27;48.43;98568.13;5017086;28;20503;-79
2022/07/10 08:20:13;;;;;;;1.93;0.63;;;16.40;52.70;;;15.84;47.27;98585.81;5003375;28;20473;-80
2022/07/10 08:22:42;;;;;;;3.10;0.80;;;16.60;53.40;;;16.41;46.49;98578.97;5004928;28;20457;-79
2022/07/10 08:25:11;;;;;;;1.97;0.70;;;17.10;52.70;;;16.80;45.68;98570.19;5007327;28;20975;-80
2022/07/10 08:27:38;;;;;;;2.30;0.80;;;17.70;52.20;;;16.59;45.45;98579.06;5017650;28;20520;-79
2022/07/10 08:30:09;;;;;;;1.30;0.80;;;17.70;51.40;;;16.40;45.85;98585.47;5012544;28;20472;-79
2022/07/10 08:32:37;;;;;;;1.43;0.70;;;17.40;51.80;;;16.41;45.37;98559.88;4996190;28;20539;-78
2022/07/10 08:35:06;;;;;;;1.30;0.70;;;17.40;51.70;;;16.56;44.74;98569.44;5003122;28;20461;-78
2022/07/10 08:37:39;;;;;;;1.67;0.77;;;17.50;51.00;;;16.94;43.58;98573.47;4994986;28;20530;-78
2022/07/10 08:40:10;;;;;;;1.47;0.60;;;17.80;50.70;;;16.60;44.29;98567.88;4995269;28;20467;-80
2022/07/10 08:42:38;;;;;;;3.73;0.87;;;17.60;50.30;;;16.37;45.03;98572.34;5003818;28;20539;-83
2022/07/10 08:45:07;;;;;;;3.33;0.93;;;17.50;50.40;;;16.19;45.85;98569.75;5008945;28;20820;-74
2022/07/10 08:47:36;;;;;;;1.20;0.40;;;17.20;50.90;;;16.53;44.82;98572.66;4989103;28;20446;-76
2022/07/10 08:50:05;;;;;;;0.93;0.70;;;17.40;50.90;;;16.55;45.33;98567.78;5013691;28;20476;-74
2022/07/10 08:52:50;;;;;;;0.83;0.50;;;17.50;50.90;;;16.52;44.64;98568.28;5000094;28;20463;-75
2022/07/10 08:55:18;;;;;;;1.80;0.43;;;17.40;50.60;;;16.64;45.66;98560.88;5014759;28;20454;-75
2022/07/10 08:57:47;;;;;;;5.10;0.70;;;17.60;51.00;;;17.07;43.73;98557.91;5020412;28;20506;-74
2022/07/10 09:00:14;;;;;;;2.50;0.83;;;17.90;50.30;;;16.96;43.80;98560.41;5001094;28;20579;-78
2022/07/10 09:02:41;;;;;;;0.60;0.60;;;17.90;50.10;;;16.72;44.09;98562.41;5013954;28;20462;-80
2022/07/10 09:05:10;;;;;;;3.30;0.90;;;17.80;50.10;;;16.71;44.69;98564.28;4998790;28;20467;-77
2022/07/10 09:07:41;;;;;;;1.67;0.67;;;17.70;50.30;;;16.48;44.89;98564.38;4994104;28;20503;-77
2022/07/10 09:10:11;;;;;;;1.53;0.67;;;17.50;50.20;;;16.51;45.10;98561.16;4996231;28;20520;-78
2022/07/10 09:12:54;;;;;;;2.00;0.90;;;17.50;50.50;;;16.93;43.96;98560.91;5001258;28;20468;-77
2022/07/10 09:15:24;;;;;;;1.47;0.77;;;17.70;50.40;;;16.97;43.38;98515.66;5008325;28;20453;-76
2022/07/10 09:17:56;;;;;;;1.10;0.40;;;18.10;50.00;;;17.38;43.17;98569.38;5008071;28;20463;-77
2022/07/10 09:20:30;;;;;;;0.83;0.50;;;18.20;49.70;;;17.38;42.55;98575.66;5010249;28;20466;-76
2022/07/10 09:23:00;;;;;;;1.90;0.60;;;18.30;49.30;;;17.36;43.78;98576.97;4994837;28;20529;-76
2022/07/10 09:25:34;;;;;;;1.00;0.50;;;18.30;49.90;;;17.86;41.94;98579.97;4996451;28;20462;-77
2022/07/10 09:28:05;;;;;;;1.33;0.50;;;18.60;49.30;;;17.77;41.95;98569.47;4990799;28;20451;-76
2022/07/10 09:30:34;;;;;;;0.83;0.40;;;18.70;49.10;;;17.83;41.87;98560.28;4989540;28;20483;-77
2022/07/10 09:33:29;;;;;;;2.43;0.80;;;18.80;49.20;;;17.83;41.67;98563.00;4994797;28;20528;-78
2022/07/10 09:36:07;;;;;;;2.60;0.60;;;18.80;49.00;;;17.94;41.07;98568.63;5000994;28;20466;-77
2022/07/10 09:39:06;;;;;;;1.63;0.50;;;18.80;48.30;;;18.22;40.89;98562.22;4987530;28;20503;-77
2022/07/10 09:41:33;;;;;;;1.10;0.63;;;19.20;48.60;;;18.28;40.90;98560.41;5000495;28;20470;-77
2022/07/10 09:44:03;;;;;;;1.40;0.47;;;19.20;48.40;;;18.16;40.67;98563.22;4994811;28;20476;-75
2022/07/10 09:46:34;;;;;;;1.23;0.70;;;19.20;48.00;;;18.23;40.86;98572.09;4992221;28;20475;-77
2022/07/10 09:49:05;;;;;;;1.57;0.43;;;19.20;48.40;;;18.14;39.86;98572.78;4989029;28;20902;-78
2022/07/10 09:51:35;;;;;;;1.37;0.60;;;19.10;47.50;;;18.01;39.78;98572.03;4992697;28;20450;-76
2022/07/10 09:54:05;;;;;;;1.63;0.60;;;19.00;46.90;;;17.94;40.34;98574.09;4988828;28;20448;-76
2022/07/10 09:56:43;;;;;;;1.13;0.57;;;18.90;47.20;;;17.55;41.74;98575.69;5004020;28;20470;-78
2022/07/10 09:59:12;;;;;;;1.10;0.50;;;18.60;47.70;;;17.51;41.66;98571.78;5006400;28;20474;-76
2022/07/10 10:01:46;;;;;;;1.80;0.73;;;18.50;47.80;;;17.48;42.39;98564.06;4993349;28;20452;-77
2022/07/10 10:04:15;;;;;;;2.20;0.70;;;18.40;48.30;;;17.63;42.75;98570.88;5005028;28;20468;-77
2022/07/10 10:06:43;;;;;;;1.40;0.70;;;18.60;48.90;;;17.79;42.67;98580.16;5007369;28;20461;-78
2022/07/10 10:09:20;;;;;;;0.93;0.53;;;18.80;49.00;;;17.86;42.83;98593.66;5019918;28;20514;-78
2022/07/10 10:11:50;;;;;;;1.17;0.40;;;18.70;49.00;;;17.60;43.18;98587.75;4999291;28;20466;-76
2022/07/10 10:14:21;;;;;;;2.83;0.60;;;18.60;48.90;;;17.72;43.67;98583.06;5001103;28;20610;-77
2022/07/10 10:16:49;;;;;;;1.43;0.50;;;18.70;49.70;;;18.24;42.39;98576.47;5009754;28;20505;-76
2022/07/10 10:22:05;;;;;;;0.83;0.40;;;19.30;48.80;;;17.95;43.23;98581.19;4991997;28;20464;-77
2022/07/10 10:24:35;;;;;;;0.90;0.50;;;19.00;49.20;;;18.16;42.97;98576.91;4990714;28;20856;-78
2022/07/10 10:27:03;;;;;;;2.47;0.90;;;19.00;49.50;;;18.23;42.99;98580.28;4999520;28;20459;-77
2022/07/10 10:29:31;;;;;;;1.80;0.60;;;19.20;49.50;;;17.62;43.10;98580.16;4988628;28;20476;-76
2022/07/10 10:31:59;;;;;;;2.63;0.97;;;18.80;49.10;;;17.23;44.15;98589.88;4990379;28;20459;-78
2022/07/10 10:34:42;;;;;;;4.57;1.10;;;18.30;49.10;;;17.70;43.11;98545.03;4988116;28;20554;-77
2022/07/10 10:37:36;;;;;;;2.40;0.53;;;18.70;49.60;;;18.34;42.50;98578.53;4995295;28;20908;-81
2022/07/10 10:40:08;;;;;;;1.53;0.80;;;19.10;49.20;;;18.59;42.08;98568.16;5005658;28;20470;-77
2022/07/10 10:42:38;;;;;;;2.10;0.70;;;19.40;49.10;;;18.75;41.33;98571.91;5009541;28;20938;-77